Flight Track Log - Related Links

Times and Time Zones

All times are in EDT time to prevent confusion due to time zone crossing. See the N769MB flight status page for this flight to view local times or setup timezone preferences in your user account.

Time Position Orientation Groundspeed Altitude Reporting Facility
EDT Latitude Longitude Course Direction KTS MPH feet Rate Location/Type
Fri 06:02:47 PM 36.0990 -86.7440 268° West 167 192 3,600  Level FlightAware ADS-B
Fri 06:03:17 PM 36.1020 -86.7720 278° West 165 190 5,000 2,800 Climbing FlightAware ADS-B
Fri 06:03:47 PM 36.1050 -86.7990 278° West 157 181 6,400 2,727 Climbing FlightAware ADS-B
Fri 06:04:12 PM 36.1070 -86.8190 277° West 150 173 7,500 2,618 Climbing FlightAware ADS-B
Fri 06:04:42 PM 36.1100 -86.8450 278° West 148 170 8,800 2,667 Climbing FlightAware ADS-B
Fri 06:04:57 PM 36.1110 -86.8580 275° West 149 171 9,500 1,650 Climbing FlightAware ADS-B
Fri 06:05:22 PM 36.1120 -86.8810 273° West 186 214 9,900 436 Climbing FlightAware ADS-B
Fri 06:05:52 PM 36.1140 -86.9180 274° West 228 262 9,900  Level FlightAware ADS-B
Fri 06:06:17 PM 36.1150 -86.9530 272° West 236 272 9,900 86 Level FlightAware ADS-B
Fri 06:07:02 PM 36.1160 -87.0120 271° West 240 276 10,000 71 Climbing FlightAware ADS-B
Fri 06:07:42 PM 36.1170 -87.0680 271° West 242 278 10,000  Level FlightAware ADS-B
Fri 06:08:27 PM 36.1190 -87.1320 272° West 245 282 10,000  Level FlightAware ADS-B
Fri 06:09:07 PM 36.1200 -87.1870 271° West 247 284 10,000  Level FlightAware ADS-B
Fri 06:09:47 PM 36.1220 -87.2450 272° West 248 285 10,000  Level FlightAware ADS-B
Fri 06:10:32 PM 36.1240 -87.3060 272° West 247 284 10,000 -92 Level FlightAware ADS-B
Fri 06:10:52 PM 36.1240 -87.3340 270° West 243 280 9,900 -450 Descending FlightAware ADS-B
Fri 06:11:12 PM 36.1200 -87.3610 260° West 238 274 9,700 -480 Descending FlightAware ADS-B
Fri 06:11:42 PM 36.1030 -87.3960 239° Southwest 238 274 9,500 -545 Descending FlightAware ADS-B
Fri 06:12:07 PM 36.0890 -87.4270 241° Southwest 238 274 9,200 -655 Descending FlightAware ADS-B
Fri 06:12:37 PM 36.0740 -87.4590 240° Southwest 239 275 8,900 -655 Descending FlightAware ADS-B
Fri 06:13:02 PM 36.0600 -87.4940 244° Southwest 242 278 8,600 -360 Descending FlightAware ADS-B
Fri 06:13:27 PM 36.0480 -87.5210 241° Southwest 242 278 8,600 -200 Level FlightAware ADS-B
Fri 06:14:02 PM 36.0310 -87.5600 242° Southwest 242 278 8,400 -218 Descending FlightAware ADS-B
Fri 06:14:22 PM 36.0220 -87.5810 242° Southwest 242 278 8,400  Level FlightAware ADS-B
Fri 06:14:42 PM 36.0130 -87.6020 242° Southwest 242 278 8,400  Level FlightAware ADS-B
Fri 06:15:02 PM 36.0040 -87.6230 242° Southwest 242 278 8,400 -1,744 Level FlightAware ADS-B
Fri 06:16:08 PM 35.9656 -87.7156 242° Southwest 246 283 5,900 -1,714 Descending Memphis Center
Fri 06:17:08 PM 35.9361 -87.7908 244° Southwest 246 283 4,800 -1,100 Descending Memphis Center
Fri 06:18:08 PM 35.9019 -87.8611 239° Southwest 246 283 3,700 -850 Descending Memphis Center
Fri 06:19:08 PM 35.8719 -87.9311 242° Southwest 246 283 3,100 -350 Descending Memphis Center
Fri 06:20:08 PM 35.8483 -87.9906 244° Southwest 240 276 3,000 -100 Descending Memphis Center
Fri 06:21:08 PM 35.8328 -88.0550 253° West 216 249 2,900 -200 Descending Memphis Center
Fri 06:22:08 PM 35.8175 -88.1272 255° West 210 242 2,600 -350 Descending Memphis Center
Fri 06:23:08 PM 35.7994 -88.1739 245° Southwest 205 236 2,200 200 Descending Memphis Center
Fri 06:24:08 PM 35.7753 -88.2256 240° Southwest 205 236 3,000 800 Climbing Memphis Center

Login

Don't have an account? Register now (free) for customized features, flight alerts, and more!